createdAt,value
2023-04-05T00:00:00.958Z,98361.47
2023-04-05T00:02:29.777Z,98369.19
2023-04-05T00:04:57.807Z,98369.22
2023-04-05T00:07:24.586Z,98362.84
2023-04-05T00:09:54.278Z,98365.88
2023-04-05T00:12:24.470Z,98364.16
2023-04-05T00:14:54.965Z,98350.31
2023-04-05T00:17:24.284Z,98375.72
2023-04-05T00:19:57.290Z,98366.13
2023-04-05T00:22:26.464Z,98366.41
2023-04-05T00:24:55.843Z,98364.53
2023-04-05T00:27:23.013Z,98358.91
2023-04-05T00:29:49.437Z,98351.88
2023-04-05T00:32:16.125Z,98359.84
2023-04-05T00:34:42.670Z,98343.75
2023-04-05T00:37:09.143Z,98364.16
2023-04-05T00:39:35.728Z,98356.00
2023-04-05T00:42:06.176Z,98355.56
2023-04-05T00:44:36.177Z,98359.84
2023-04-05T00:47:04.760Z,98354.09
2023-04-05T00:49:32.535Z,98351.38
2023-04-05T00:51:59.362Z,98349.31
2023-04-05T00:54:26.289Z,98354.09
2023-04-05T00:56:53.860Z,98348.47
2023-04-05T00:59:20.700Z,98345.75
2023-04-05T01:01:55.257Z,98350.97
2023-04-05T01:04:25.967Z,98349.91
2023-04-05T01:07:17.309Z,98343.13
2023-04-05T01:09:55.405Z,98355.47
2023-04-05T01:12:26.198Z,98343.88
2023-04-05T01:14:55.620Z,98354.53
2023-04-05T01:17:28.020Z,98348.38
2023-04-05T01:20:03.929Z,98336.22
2023-04-05T01:22:52.154Z,98347.31
2023-04-05T01:25:37.211Z,98346.69
2023-04-05T01:28:27.408Z,98338.84
2023-04-05T01:31:18.038Z,98341.78
2023-04-05T01:33:57.028Z,98341.56
2023-04-05T01:36:49.335Z,98337.25
2023-04-05T01:39:20.232Z,98340.50
2023-04-05T01:41:47.423Z,98340.28
2023-04-05T01:44:14.000Z,98337.66
2023-04-05T01:46:40.797Z,98348.44
2023-04-05T01:49:07.688Z,98349.09
2023-04-05T01:51:34.160Z,98351.47
2023-04-05T01:54:00.609Z,98343.63
2023-04-05T01:56:29.872Z,98342.91
2023-04-05T01:58:59.720Z,98341.34
2023-04-05T02:01:29.079Z,98347.81
2023-04-05T02:04:00.346Z,98345.44
2023-04-05T02:06:32.199Z,98344.38
2023-04-05T02:08:58.725Z,98344.72
2023-04-05T02:11:25.392Z,98335.09
2023-04-05T02:13:51.804Z,98333.63
2023-04-05T02:16:18.469Z,98331.22
2023-04-05T02:18:50.766Z,98332.44
2023-04-05T02:21:17.266Z,98341.31
2023-04-05T02:23:44.056Z,98326.06
2023-04-05T02:26:10.498Z,98340.75
2023-04-05T02:28:36.978Z,98321.50
2023-04-05T02:31:09.018Z,98330.56
2023-04-05T02:33:35.634Z,98326.63
2023-04-05T02:36:06.569Z,98329.13
2023-04-05T02:38:33.930Z,98330.19
2023-04-05T02:41:00.369Z,98340.38
2023-04-05T02:43:29.290Z,98338.91
2023-04-05T02:45:55.867Z,98339.66
2023-04-05T02:48:22.397Z,98338.63
2023-04-05T02:50:52.723Z,98342.28
2023-04-05T02:53:19.245Z,98334.16
2023-04-05T02:55:55.653Z,98354.84
2023-04-05T02:58:22.432Z,98342.00
2023-04-05T03:00:51.141Z,98329.63
2023-04-05T03:03:20.893Z,98337.16
2023-04-05T03:05:48.657Z,98329.81
2023-04-05T03:08:19.433Z,98337.56
2023-04-05T03:10:46.849Z,98350.53
2023-04-05T03:13:16.380Z,98346.03
2023-04-05T03:15:43.579Z,98336.66
2023-04-05T03:18:10.656Z,98351.59
2023-04-05T03:20:41.384Z,98352.56
2023-04-05T03:23:10.956Z,98358.72
2023-04-05T03:25:38.325Z,98357.66
2023-04-05T03:28:05.803Z,98359.13
2023-04-05T03:30:36.059Z,98353.06
2023-04-05T03:33:03.167Z,98345.84
2023-04-05T03:35:30.707Z,98350.00
2023-04-05T03:37:57.400Z,98337.69
2023-04-05T03:40:24.577Z,98350.66
2023-04-05T03:42:51.396Z,98362.69
2023-04-05T03:45:23.802Z,98362.13
2023-04-05T03:47:51.164Z,98357.16
2023-04-05T03:50:17.707Z,98367.38
2023-04-05T03:52:44.263Z,98364.84
2023-04-05T03:55:10.805Z,98369.66
2023-04-05T03:57:38.261Z,98360.88
2023-04-05T04:00:24.441Z,98358.69
2023-04-05T04:02:52.554Z,98352.63
2023-04-05T04:05:19.801Z,98365.56
2023-04-05T04:07:47.216Z,98358.25
2023-04-05T04:10:17.572Z,98355.34
2023-04-05T04:12:45.062Z,98368.41
2023-04-05T04:15:12.393Z,98358.69
2023-04-05T04:17:39.749Z,98369.84
2023-04-05T04:20:12.429Z,98372.28
2023-04-05T04:22:40.409Z,98364.72
2023-04-05T04:25:11.621Z,98366.41
2023-04-05T04:27:40.352Z,98360.13
2023-04-05T04:30:12.017Z,98352.50
2023-04-05T04:32:52.073Z,98362.84
2023-04-05T04:35:24.755Z,98373.50
2023-04-05T04:37:59.454Z,98372.44
2023-04-05T04:40:38.708Z,98379.66
2023-04-05T04:43:19.073Z,98387.06
2023-04-05T04:45:50.282Z,98384.09
2023-04-05T04:48:17.327Z,98368.50
2023-04-05T04:50:49.800Z,98376.16
2023-04-05T04:53:26.808Z,98364.56
2023-04-05T04:55:55.168Z,98366.47
2023-04-05T04:58:21.625Z,98354.59
2023-04-05T05:00:48.363Z,98352.03
2023-04-05T05:03:15.008Z,98366.63
2023-04-05T05:05:46.909Z,98359.97
2023-04-05T05:08:14.105Z,98363.19
2023-04-05T05:10:40.859Z,98353.63
2023-04-05T05:13:08.269Z,98371.72
2023-04-05T05:15:34.748Z,98369.13
2023-04-05T05:18:01.302Z,98367.31
2023-04-05T05:20:28.683Z,98363.59
2023-04-05T05:23:01.398Z,98354.28
2023-04-05T05:25:28.512Z,98361.63
2023-04-05T05:27:55.862Z,98354.28
2023-04-05T05:30:22.643Z,98360.53
2023-04-05T05:32:52.974Z,98364.06
2023-04-05T05:35:19.507Z,98366.03
2023-04-05T05:37:46.030Z,98359.09
2023-04-05T05:40:13.334Z,98367.19
2023-04-05T05:42:39.917Z,98370.44
2023-04-05T05:45:10.255Z,98373.56
2023-04-05T05:47:38.349Z,98364.16
2023-04-05T05:50:07.818Z,98364.91
2023-04-05T05:52:38.367Z,98365.91
2023-04-05T05:55:05.166Z,98355.88
2023-04-05T05:57:31.929Z,98383.81
2023-04-05T05:59:58.675Z,98353.38
2023-04-05T06:02:26.248Z,98386.69
2023-04-05T06:04:52.861Z,98368.97
2023-04-05T06:07:19.445Z,98372.53
2023-04-05T06:09:47.624Z,98380.47
2023-04-05T06:12:14.156Z,98381.09
2023-04-05T06:14:41.007Z,98374.25
2023-04-05T06:17:10.518Z,98392.06
2023-04-05T06:19:38.607Z,98390.41
2023-04-05T06:22:06.634Z,98389.69
2023-04-05T06:24:33.723Z,98387.09
2023-04-05T06:27:01.225Z,98396.09
2023-04-05T06:29:27.688Z,98387.13
2023-04-05T06:31:55.516Z,98378.44
2023-04-05T06:34:22.196Z,98392.78
2023-04-05T06:36:48.740Z,98389.72
2023-04-05T06:39:15.485Z,98395.78
2023-04-05T06:41:41.909Z,98396.63
2023-04-05T06:44:10.990Z,98386.91
2023-04-05T06:46:40.421Z,98403.09
2023-04-05T06:49:09.921Z,98392.34
2023-04-05T06:51:38.324Z,98394.19
2023-04-05T06:54:04.841Z,98383.16
2023-04-05T06:56:31.278Z,98382.75
2023-04-05T06:59:02.363Z,98397.72
2023-04-05T07:01:29.422Z,98397.16
2023-04-05T07:03:56.124Z,98399.81
2023-04-05T07:06:24.007Z,98390.75
2023-04-05T07:08:50.588Z,98393.44
2023-04-05T07:11:17.036Z,98385.69
2023-04-05T07:13:43.503Z,98398.22
2023-04-05T07:16:10.055Z,98391.53
2023-04-05T07:18:40.869Z,98396.28
2023-04-05T07:21:10.332Z,98395.78
2023-04-05T07:23:40.810Z,98390.75
2023-04-05T07:26:12.505Z,98390.81
2023-04-05T07:28:42.089Z,98398.69
2023-04-05T07:31:11.818Z,98394.44
2023-04-05T07:33:41.365Z,98412.41
2023-04-05T07:36:11.002Z,98386.38
2023-04-05T07:38:41.537Z,98399.81
2023-04-05T07:41:11.664Z,98388.19
2023-04-05T07:43:39.199Z,98389.63
2023-04-05T07:46:08.174Z,98388.66
2023-04-05T07:48:34.760Z,98382.84
2023-04-05T07:51:14.668Z,98380.63
2023-04-05T07:53:43.116Z,98380.34
2023-04-05T07:56:14.224Z,98377.97
2023-04-05T07:58:41.311Z,98371.22
2023-04-05T08:01:11.509Z,98381.38
2023-04-05T08:03:39.937Z,98370.63
2023-04-05T08:06:11.658Z,98373.53
2023-04-05T08:08:41.723Z,98373.81
2023-04-05T08:11:08.758Z,98364.66
2023-04-05T08:13:37.467Z,98368.22
2023-04-05T08:16:04.389Z,98361.44
2023-04-05T08:18:30.875Z,98364.09
2023-04-05T08:20:57.925Z,98372.38
2023-04-05T08:23:24.375Z,98369.59
2023-04-05T08:25:51.401Z,98369.00
2023-04-05T08:28:17.880Z,98359.06
2023-04-05T08:30:45.986Z,98360.22
2023-04-05T08:33:12.980Z,98360.84
2023-04-05T08:35:39.840Z,98355.78
2023-04-05T08:38:09.639Z,98366.09
2023-04-05T08:40:44.711Z,98363.44
2023-04-05T08:43:28.324Z,98352.72
2023-04-05T08:45:58.773Z,98349.56
2023-04-05T08:48:27.443Z,98351.25
2023-04-05T08:50:54.556Z,98351.25
2023-04-05T08:53:21.896Z,98347.38
2023-04-05T08:55:52.976Z,98351.69
2023-04-05T08:58:24.213Z,98351.63
2023-04-05T09:00:51.968Z,98354.63
2023-04-05T09:03:23.154Z,98348.34
2023-04-05T09:05:53.486Z,98355.22
2023-04-05T09:08:23.737Z,98351.41
2023-04-05T09:10:53.375Z,98348.19
2023-04-05T09:13:20.077Z,98354.41
2023-04-05T09:15:47.147Z,98351.91
2023-04-05T09:18:25.383Z,98346.84
2023-04-05T09:21:01.763Z,98359.75
2023-04-05T09:23:28.847Z,98363.81
2023-04-05T09:25:55.346Z,98365.88
2023-04-05T09:28:21.823Z,98355.78
2023-04-05T09:30:48.313Z,98366.38
2023-04-05T09:33:19.873Z,98364.78
2023-04-05T09:35:51.385Z,98344.84
2023-04-05T09:38:17.887Z,98350.78
2023-04-05T09:40:46.132Z,98356.34
2023-04-05T09:43:33.410Z,98341.50
2023-04-05T09:46:00.306Z,98347.91
2023-04-05T09:48:51.595Z,98348.66
2023-04-05T09:51:18.789Z,98351.34
2023-04-05T09:54:02.496Z,98340.41
2023-04-05T09:56:32.117Z,98339.53
2023-04-05T09:59:01.493Z,98341.25
2023-04-05T10:01:31.879Z,98340.06
2023-04-05T10:04:03.096Z,98333.59
2023-04-05T10:06:41.687Z,98333.94
2023-04-05T10:09:11.156Z,98312.75
2023-04-05T10:11:38.965Z,98318.81
2023-04-05T10:14:08.671Z,98328.28
2023-04-05T10:16:53.678Z,98324.97
2023-04-05T10:19:46.441Z,98332.78
2023-04-05T10:22:29.143Z,98321.94
2023-04-05T10:25:02.493Z,98328.03
2023-04-05T10:27:49.589Z,98332.47
2023-04-05T10:30:16.773Z,98325.16
2023-04-05T10:32:46.062Z,98321.81
2023-04-05T10:35:16.191Z,98325.50
2023-04-05T10:38:09.263Z,98319.84
2023-04-05T10:40:38.592Z,98316.41
2023-04-05T10:43:18.319Z,98319.97
2023-04-05T10:45:48.081Z,98319.59
2023-04-05T10:48:33.317Z,98323.00
2023-04-05T10:51:00.607Z,98317.53
2023-04-05T10:53:27.631Z,98317.59
2023-04-05T10:55:57.825Z,98312.94
2023-04-05T10:58:26.190Z,98308.84
2023-04-05T11:00:54.924Z,98320.09
2023-04-05T11:03:51.891Z,98317.47
2023-04-05T11:06:21.453Z,98316.53
2023-04-05T11:08:50.302Z,98314.50
2023-04-05T11:11:18.858Z,98314.97
2023-04-05T11:13:53.888Z,98308.31
2023-04-05T11:16:21.529Z,98301.16
2023-04-05T11:18:52.372Z,98307.53
2023-04-05T11:21:26.127Z,98293.31
2023-04-05T11:24:15.467Z,98297.44
2023-04-05T11:26:41.906Z,98304.59
2023-04-05T11:29:11.734Z,98300.22
2023-04-05T11:31:59.793Z,98293.09
2023-04-05T11:34:26.757Z,98297.19
2023-04-05T11:36:53.747Z,98288.34
2023-04-05T11:39:23.655Z,98290.34
2023-04-05T11:41:56.034Z,98284.41
2023-04-05T11:44:24.357Z,98276.22
2023-04-05T11:46:52.356Z,98285.06
2023-04-05T11:49:23.282Z,98294.47
2023-04-05T11:51:51.595Z,98279.41
2023-04-05T11:54:31.987Z,98276.88
2023-04-05T11:56:58.709Z,98274.31
2023-04-05T11:59:33.446Z,98271.31
2023-04-05T12:02:06.197Z,98270.31
2023-04-05T12:04:33.520Z,98273.50
2023-04-05T12:07:12.315Z,98273.16
2023-04-05T12:10:04.755Z,98265.53
2023-04-05T12:12:42.225Z,98260.13
2023-04-05T12:15:14.130Z,98257.16
2023-04-05T12:17:49.634Z,98265.03
2023-04-05T12:20:20.267Z,98262.84
2023-04-05T12:22:48.727Z,98266.00
2023-04-05T12:25:17.091Z,98265.19
2023-04-05T12:27:44.085Z,98266.09
2023-04-05T12:30:21.553Z,98265.81
2023-04-05T12:32:52.730Z,98261.09
2023-04-05T12:35:22.546Z,98258.25
2023-04-05T12:37:51.416Z,98258.66
2023-04-05T12:40:24.921Z,98266.09
2023-04-05T12:42:51.935Z,98254.88
2023-04-05T12:45:18.853Z,98254.25
2023-04-05T12:47:50.648Z,98247.47
2023-04-05T12:50:18.386Z,98251.34
2023-04-05T12:53:05.024Z,98252.94
2023-04-05T12:55:31.952Z,98247.34
2023-04-05T12:58:03.880Z,98239.34
2023-04-05T13:00:31.550Z,98250.91
2023-04-05T13:02:59.658Z,98242.72
2023-04-05T13:05:28.626Z,98231.81
2023-04-05T13:07:55.470Z,98244.53
2023-04-05T13:10:24.193Z,98249.94
2023-04-05T13:12:50.910Z,98249.22
2023-04-05T13:15:18.177Z,98239.50
2023-04-05T13:17:45.772Z,98241.50
2023-04-05T13:20:12.492Z,98234.31
2023-04-05T13:22:40.629Z,98229.34
2023-04-05T13:25:07.360Z,98228.41
2023-04-05T13:27:34.104Z,98217.91
2023-04-05T13:30:00.655Z,98219.81
2023-04-05T13:32:27.383Z,98202.91
2023-04-05T13:34:53.908Z,98217.41
2023-04-05T13:37:20.447Z,98217.47
2023-04-05T13:39:46.996Z,98202.22
2023-04-05T13:42:13.470Z,98210.06
2023-04-05T13:44:43.512Z,98211.34
2023-04-05T13:47:14.910Z,98207.81
2023-04-05T13:49:44.119Z,98202.88
2023-04-05T13:52:11.810Z,98194.44
2023-04-05T13:54:38.285Z,98191.28
2023-04-05T13:57:05.626Z,98189.63
2023-04-05T13:59:32.286Z,98201.19
2023-04-05T14:01:59.007Z,98199.00
2023-04-05T14:04:25.596Z,98190.19
2023-04-05T14:06:52.065Z,98182.63
2023-04-05T14:09:18.564Z,98184.41
2023-04-05T14:11:45.262Z,98185.13
2023-04-05T14:14:11.775Z,98183.09
2023-04-05T14:16:38.345Z,98176.78
2023-04-05T14:19:06.203Z,98181.09
2023-04-05T14:21:33.180Z,98173.94
2023-04-05T14:23:59.813Z,98177.84
2023-04-05T14:26:27.977Z,98175.06
2023-04-05T14:28:54.975Z,98171.06
2023-04-05T14:31:25.081Z,98173.81
2023-04-05T14:33:52.182Z,98172.06
2023-04-05T14:36:18.827Z,98173.34
2023-04-05T14:38:45.437Z,98164.06
2023-04-05T14:41:15.078Z,98166.50
2023-04-05T14:43:41.988Z,98158.50
2023-04-05T14:46:12.555Z,98164.94
2023-04-05T14:48:41.209Z,98150.47
2023-04-05T14:51:07.863Z,98148.09
2023-04-05T14:53:34.373Z,98144.00
2023-04-05T14:56:01.001Z,98147.81
2023-04-05T14:58:29.249Z,98143.50
2023-04-05T15:00:56.870Z,98143.03
2023-04-05T15:03:24.616Z,98141.63
2023-04-05T15:05:51.279Z,98146.88
2023-04-05T15:08:17.828Z,98146.19
2023-04-05T15:10:45.159Z,98145.00
2023-04-05T15:13:12.670Z,98139.22
2023-04-05T15:15:41.964Z,98139.69
2023-04-05T15:18:12.105Z,98138.16
2023-04-05T15:20:41.883Z,98137.03
2023-04-05T15:23:11.175Z,98147.66
2023-04-05T15:25:37.694Z,98137.69
2023-04-05T15:28:07.068Z,98127.16
2023-04-05T15:30:33.750Z,98131.69
2023-04-05T15:33:00.817Z,98135.13
2023-04-05T15:35:27.548Z,98137.88
2023-04-05T15:37:54.097Z,98127.59
2023-04-05T15:40:20.847Z,98124.97
2023-04-05T15:42:47.399Z,98125.34
2023-04-05T15:45:13.999Z,98127.09
2023-04-05T15:47:43.670Z,98116.97
2023-04-05T15:50:13.329Z,98115.22
2023-04-05T15:52:44.747Z,98113.09
2023-04-05T15:55:14.024Z,98119.63
2023-04-05T15:57:43.716Z,98121.34
2023-04-05T16:00:13.807Z,98114.06
2023-04-05T16:02:43.917Z,98110.22
2023-04-05T16:05:13.439Z,98110.00
2023-04-05T16:07:43.042Z,98107.84
2023-04-05T16:10:11.848Z,98089.72
2023-04-05T16:12:40.883Z,98099.94
2023-04-05T16:15:08.031Z,98108.19
2023-04-05T16:17:34.783Z,98084.69
2023-04-05T16:20:01.412Z,98100.09
2023-04-05T16:22:28.045Z,98109.84
2023-04-05T16:24:54.592Z,98108.38
2023-04-05T16:27:21.236Z,98102.47
2023-04-05T16:29:47.855Z,98108.63
2023-04-05T16:32:14.635Z,98115.78
2023-04-05T16:34:42.541Z,98109.81
2023-04-05T16:37:09.710Z,98116.78
2023-04-05T16:39:36.252Z,98096.63
2023-04-05T16:42:02.915Z,98101.16
2023-04-05T16:44:31.688Z,98111.91
2023-04-05T16:46:58.742Z,98113.13
2023-04-05T16:49:25.526Z,98104.75
2023-04-05T16:51:52.470Z,98103.13
2023-04-05T16:54:18.991Z,98111.53
2023-04-05T16:56:45.521Z,98109.41
2023-04-05T16:59:12.244Z,98122.19
2023-04-05T17:01:41.572Z,98120.22
2023-04-05T17:04:08.438Z,98132.22
2023-04-05T17:06:35.035Z,98130.38
2023-04-05T17:09:01.913Z,98129.78
2023-04-05T17:11:28.685Z,98131.63
2023-04-05T17:13:55.625Z,98129.63
2023-04-05T17:16:22.473Z,98131.75
2023-04-05T17:18:49.126Z,98126.09
2023-04-05T17:21:15.784Z,98132.16
2023-04-05T17:23:42.366Z,98123.38
2023-04-05T17:26:10.368Z,98130.66
2023-04-05T17:28:36.982Z,98129.22
2023-04-05T17:31:03.985Z,98143.56
2023-04-05T17:33:32.873Z,98128.66
2023-04-05T17:35:59.864Z,98139.31
2023-04-05T17:38:27.744Z,98132.00
2023-04-05T17:40:57.179Z,98129.72
2023-04-05T17:43:24.217Z,98142.69
2023-04-05T17:45:51.637Z,98141.81
2023-04-05T17:48:19.035Z,98153.84
2023-04-05T17:50:46.088Z,98149.78
2023-04-05T17:53:14.483Z,98139.09
2023-04-05T17:55:44.028Z,98154.34
2023-04-05T17:58:13.582Z,98155.63
2023-04-05T18:00:45.485Z,98159.59
2023-04-05T18:03:13.336Z,98158.09
2023-04-05T18:05:42.004Z,98154.63
2023-04-05T18:08:10.924Z,98166.44
2023-04-05T18:10:37.482Z,98163.84
2023-04-05T18:13:05.780Z,98164.34
2023-04-05T18:15:32.344Z,98158.06
2023-04-05T18:17:58.962Z,98166.09
2023-04-05T18:20:25.470Z,98175.22
2023-04-05T18:22:51.982Z,98169.25
2023-04-05T18:25:20.308Z,98163.28
2023-04-05T18:27:48.110Z,98178.19
2023-04-05T18:30:14.908Z,98182.84
2023-04-05T18:32:41.988Z,98180.50
2023-04-05T18:35:14.792Z,98186.47
2023-04-05T18:37:44.584Z,98187.59
2023-04-05T18:40:15.844Z,98193.09
2023-04-05T18:42:42.610Z,98196.44
2023-04-05T18:45:10.619Z,98200.53
2023-04-05T18:47:37.420Z,98195.34
2023-04-05T18:50:04.787Z,98192.81
2023-04-05T18:52:34.324Z,98191.63
2023-04-05T18:56:38.240Z,98205.78
2023-04-05T18:58:22.959Z,98175.41
2023-04-05T19:00:49.526Z,98218.38
2023-04-05T19:03:19.613Z,98215.03
2023-04-05T19:05:53.177Z,98219.03
2023-04-05T19:08:20.037Z,98231.22
2023-04-05T19:10:46.856Z,98212.78
2023-04-05T19:13:13.347Z,98212.56
2023-04-05T19:15:42.858Z,98230.81
2023-04-05T19:18:11.950Z,98217.91
2023-04-05T19:20:38.465Z,98234.00
2023-04-05T19:23:05.096Z,98238.56
2023-04-05T19:25:31.703Z,98226.94
2023-04-05T19:27:58.245Z,98234.03
2023-04-05T19:30:24.807Z,98240.25
2023-04-05T19:32:54.643Z,98235.97
2023-04-05T19:35:21.241Z,98231.44
2023-04-05T19:37:47.822Z,98253.28
2023-04-05T19:40:14.421Z,98246.78
2023-04-05T19:42:47.269Z,98252.06
2023-04-05T19:45:24.465Z,98248.81
2023-04-05T19:47:51.157Z,98253.13
2023-04-05T19:50:48.877Z,98259.63
2023-04-05T19:53:49.876Z,98274.88
2023-04-05T19:56:25.622Z,98253.16
2023-04-05T19:59:03.550Z,98278.25
2023-04-05T20:01:45.741Z,98280.63
2023-04-05T20:04:15.212Z,98261.78
2023-04-05T20:06:45.122Z,98274.88
2023-04-05T20:09:17.075Z,98264.25
2023-04-05T20:11:51.035Z,98269.47
2023-04-05T20:14:19.875Z,98282.13
2023-04-05T20:16:46.452Z,98276.94
2023-04-05T20:19:16.178Z,98272.66
2023-04-05T20:21:45.675Z,98258.16
2023-04-05T20:24:21.989Z,98267.25
2023-04-05T20:26:48.645Z,98262.88
2023-04-05T20:29:19.509Z,98282.88
2023-04-05T20:31:46.349Z,98262.94
2023-04-05T20:34:24.533Z,98263.78
2023-04-05T20:36:55.011Z,98277.69
2023-04-05T20:39:23.656Z,98249.56
2023-04-05T20:41:50.397Z,98264.56
2023-04-05T20:44:16.922Z,98284.53
2023-04-05T20:46:43.550Z,98268.41
2023-04-05T20:49:10.267Z,98265.78
2023-04-05T20:51:41.874Z,98266.91
2023-04-05T20:54:09.392Z,98273.84
2023-04-05T20:56:36.014Z,98270.00
2023-04-05T20:59:02.611Z,98274.16
2023-04-05T21:01:29.266Z,98283.00
2023-04-05T21:03:56.290Z,98271.91
2023-04-05T21:06:22.921Z,98280.91
2023-04-05T21:08:49.531Z,98280.66
2023-04-05T21:11:16.026Z,98263.72
2023-04-05T21:13:45.900Z,98270.38
2023-04-05T21:16:13.478Z,98271.34
2023-04-05T21:18:40.072Z,98264.69
2023-04-05T21:21:06.658Z,98282.03
2023-04-05T21:23:34.531Z,98270.66
2023-04-05T21:26:01.282Z,98280.66
2023-04-05T21:28:27.815Z,98268.31
2023-04-05T21:30:54.350Z,98263.84
2023-04-05T21:33:21.190Z,98280.72
2023-04-05T21:35:47.996Z,98279.09
2023-04-05T21:38:17.768Z,98263.97
2023-04-05T21:40:49.898Z,98269.50
2023-04-05T21:43:16.666Z,98268.53
2023-04-05T21:45:45.212Z,98273.19
2023-04-05T21:48:11.734Z,98258.34
2023-04-05T21:50:38.243Z,98257.28
2023-04-05T21:53:07.320Z,98266.44
2023-04-05T21:55:36.075Z,98258.13
2023-04-05T21:58:02.607Z,98264.06
2023-04-05T22:00:29.187Z,98255.75
2023-04-05T22:02:55.885Z,98249.81
2023-04-05T22:05:36.229Z,98252.78
2023-04-05T22:08:05.836Z,98273.53
2023-04-05T22:10:32.888Z,98266.16
2023-04-05T22:12:59.394Z,98274.63
2023-04-05T22:15:26.054Z,98258.53
2023-04-05T22:17:52.630Z,98263.53
2023-04-05T22:20:19.301Z,98269.00
2023-04-05T22:22:47.162Z,98268.97
2023-04-05T22:25:13.747Z,98273.19
2023-04-05T22:27:40.760Z,98257.22
2023-04-05T22:30:08.471Z,98270.91
2023-04-05T22:32:36.045Z,98263.13
2023-04-05T22:35:04.675Z,98277.41
2023-04-05T22:37:35.823Z,98259.03
2023-04-05T22:40:04.452Z,98260.19
2023-04-05T22:42:31.728Z,98273.56
2023-04-05T22:44:58.572Z,98267.41
2023-04-05T22:47:25.268Z,98271.47
2023-04-05T22:49:52.349Z,98277.97
2023-04-05T22:52:19.734Z,98268.38
2023-04-05T22:54:46.501Z,98264.47
2023-04-05T22:57:14.178Z,98266.78
2023-04-05T22:59:40.885Z,98263.44
2023-04-05T23:02:07.594Z,98268.94
2023-04-05T23:04:34.180Z,98273.50
2023-04-05T23:07:00.820Z,98258.84
2023-04-05T23:09:27.381Z,98266.53
2023-04-05T23:11:53.865Z,98271.97
2023-04-05T23:14:20.982Z,98272.25
2023-04-05T23:16:47.549Z,98265.69
2023-04-05T23:19:14.145Z,98263.00
2023-04-05T23:21:40.899Z,98253.50
2023-04-05T23:24:07.656Z,98262.38
2023-04-05T23:26:34.418Z,98270.63
2023-04-05T23:29:00.996Z,98259.78
2023-04-05T23:31:27.847Z,98272.66
2023-04-05T23:33:54.893Z,98265.66
2023-04-05T23:36:24.450Z,98266.47
2023-04-05T23:38:52.074Z,98263.94
2023-04-05T23:41:18.588Z,98251.97
2023-04-05T23:43:46.039Z,98259.28
2023-04-05T23:46:12.863Z,98248.06
2023-04-05T23:48:39.452Z,98259.34
2023-04-05T23:51:06.322Z,98257.50
2023-04-05T23:53:32.839Z,98269.09
2023-04-05T23:55:59.378Z,98256.31
2023-04-05T23:58:25.947Z,98260.41
